Rolla, MO (65401)

11:48 AM CST on February 24, 2017 (GMT -0600)
Rolla | | Change Station

Elev 1043 ft 37.94 °N, 91.76 °W | Updated 3 minutes ago

Overcast
Overcast
50.2 °F
Feels Like 50.2 °F
N
0.0
Wind Variable Wind from SSE
Gusts 0.0 mph

Today
High -- | Low -- °F
--% Chance of Precip.
Yesterday
High -- | Low -- °F
Precip. -- in
Pressure 29.61 in
Visibility 10.0 miles
Clouds Overcast 1600 ft
Dew Point 26 °F
Humidity 39%
Rainfall Not available.
Snow Depth Not available.
6:45 AM 5:55 PM
Waning Crescent, 4% visible
METAR KVIH 241653Z AUTO 27010KT 10SM OVC016 09/05 A2962 RMK AO2 RAB33E44 SLP027 P0000 T00890050
Pressure 29.61 in
Visibility 10.0 miles
Clouds Overcast 1600 ft
Dew Point 26 °F
Humidity 39%
Rainfall Not available.
Snow Depth Not available.
6:45 AM 5:55 PM
Waning Crescent, 4% visible
METAR KVIH 241653Z AUTO 27010KT 10SM OVC016 09/05 A2962 RMK AO2 RAB33E44 SLP027 P0000 T00890050

Get Your Daily Forecast Email!

Thanks for signing up!

Be on the lookout for a verification email in your inbox.

You'll start receiving the daily forecast at 8 AM.

×

10-Day Weather Forecast

Almanac

Astronomy

Feb. 24, 2017 Rise Set
Actual Time
Civil Twilight
Nautical Twilight
Astronomical Twilight
Moon
Length of Visible Light
Length of Day
Tomorrow will be .
, % of the Moon is Illuminated

Today's Extremes

State Highs State Lows

Community

WunderPhotos

Upload Photos

1,962,540 photos uploaded!

WunderBlog® & News

Nearby

Air Quality

  Air Quality AQ Index Pollutant
Not available.

Snow Depth

Station Depth Elevation

Earthquake Activity

City Distance Mag. Time & Date
Minimum magnitude displayed is 2.5.

Coastal Water Temperatures

Place Temperature

Stations

Nearby Weather Stations

Station Location Temp. Windchill Dew Point Humidity Wind Precip. Elev Updated Type
                   

Watches & Warnings

There are currently no watches in effect.